Time;durP1;ratioP1;P1;durP2;ratioP2;P2;SDS_P1;SDS_P2;PMS_P1;PMS_P2;Temp;Humidity;BMP_temperature;BMP_pressure;BME280_temperature;BME280_humidity;BME280_pressure;Samples;Min_cycle;Max_cycle;Signal;HPM_P1;HPM_P2
2021/09/05 00:02:13;;;;;;;17.42;8.13;;;13.50;99.90;;;;;;4948314;29;20034;-76
2021/09/05 00:04:38;;;;;;;17.67;7.18;;;13.60;99.90;;;;;;4948165;29;20071;-77
2021/09/05 00:07:04;;;;;;;14.70;7.15;;;13.50;99.90;;;;;;4930844;29;20051;-76
2021/09/05 00:09:30;;;;;;;18.70;7.68;;;13.50;99.90;;;;;;4948317;29;20067;-77
2021/09/05 00:11:55;;;;;;;17.83;7.97;;;13.60;99.90;;;;;;4948339;29;20031;-74
2021/09/05 00:14:21;;;;;;;20.02;7.20;;;13.50;99.90;;;;;;4947888;29;20035;-76
2021/09/05 00:16:47;;;;;;;17.17;7.75;;;13.70;99.90;;;;;;4931074;29;20023;-76
2021/09/05 00:19:12;;;;;;;20.15;7.28;;;13.60;99.90;;;;;;4930996;29;20840;-77
2021/09/05 00:21:38;;;;;;;12.60;7.20;;;13.50;99.90;;;;;;4947850;29;20408;-78
2021/09/05 00:24:04;;;;;;;20.60;7.55;;;13.50;99.90;;;;;;4931119;29;20027;-76
2021/09/05 00:26:32;;;;;;;18.40;8.27;;;13.50;99.90;;;;;;4931027;29;20043;-78
2021/09/05 00:28:58;;;;;;;18.17;7.93;;;13.50;99.90;;;;;;4930388;29;20040;-76
2021/09/05 00:31:24;;;;;;;18.35;7.97;;;13.50;99.90;;;;;;4948332;29;20028;-79
2021/09/05 00:33:50;;;;;;;16.20;7.10;;;13.50;99.90;;;;;;4930564;29;20032;-77
2021/09/05 00:36:16;;;;;;;18.23;7.65;;;13.50;99.90;;;;;;4947694;29;20038;-77
2021/09/05 00:38:41;;;;;;;18.52;8.35;;;13.50;99.90;;;;;;4947844;29;20031;-76
2021/09/05 00:41:07;;;;;;;20.02;8.20;;;13.40;99.90;;;;;;4930224;29;20027;-78
2021/09/05 00:43:52;;;;;;;19.48;7.93;;;13.40;99.90;;;;;;4947909;29;20034;-78
2021/09/05 00:46:17;;;;;;;15.45;6.75;;;13.40;99.90;;;;;;4947772;29;20028;-76
2021/09/05 00:48:43;;;;;;;19.63;8.23;;;13.30;99.90;;;;;;4930110;29;20043;-77
2021/09/05 00:51:09;;;;;;;19.33;6.63;;;13.40;99.90;;;;;;4947698;29;20036;-78
2021/09/05 00:53:34;;;;;;;17.30;7.38;;;13.20;99.90;;;;;;4947813;29;20028;-76
2021/09/05 00:56:00;;;;;;;16.20;7.20;;;13.30;99.90;;;;;;4947217;29;20035;-75
2021/09/05 00:58:26;;;;;;;22.50;8.15;;;13.30;99.90;;;;;;4947454;29;20035;-76
2021/09/05 01:00:51;;;;;;;25.83;8.38;;;13.30;99.90;;;;;;4947448;29;20055;-76
2021/09/05 01:03:17;;;;;;;19.10;7.72;;;13.30;99.90;;;;;;4930029;29;20032;-75
2021/09/05 01:05:43;;;;;;;15.95;7.88;;;13.30;99.90;;;;;;4947483;29;20074;-77
2021/09/05 01:08:09;;;;;;;18.92;7.72;;;13.30;99.90;;;;;;4928940;29;20064;-76
2021/09/05 01:10:34;;;;;;;17.90;7.95;;;13.30;99.90;;;;;;4929817;29;20059;-76
2021/09/05 01:13:01;;;;;;;21.27;8.48;;;13.30;99.90;;;;;;4947389;29;20055;-77
2021/09/05 01:15:27;;;;;;;31.85;8.68;;;13.30;99.90;;;;;;4946853;29;20024;-78
2021/09/05 01:17:52;;;;;;;25.17;9.40;;;13.20;99.90;;;;;;4947237;29;20040;-77
2021/09/05 01:20:18;;;;;;;15.80;7.38;;;13.20;99.90;;;;;;4947179;29;20035;-75
2021/09/05 01:22:43;;;;;;;24.92;7.97;;;13.20;99.90;;;;;;4929660;29;20066;-75
2021/09/05 01:25:09;;;;;;;20.00;8.00;;;13.20;99.90;;;;;;4947363;29;20035;-77
2021/09/05 01:27:35;;;;;;;24.00;8.13;;;13.20;99.90;;;;;;4947158;29;20031;-75
2021/09/05 01:30:01;;;;;;;21.55;7.07;;;13.30;99.90;;;;;;4946690;29;20075;-78
2021/09/05 01:32:26;;;;;;;17.35;6.75;;;13.20;99.90;;;;;;4947388;29;20023;-77
2021/09/05 01:34:53;;;;;;;17.27;7.28;;;13.10;99.90;;;;;;4929990;29;20102;-77
2021/09/05 01:37:18;;;;;;;22.05;7.35;;;13.10;99.90;;;;;;4929697;29;20059;-77
2021/09/05 01:39:44;;;;;;;19.35;7.15;;;13.10;99.90;;;;;;4947270;29;20083;-76
2021/09/05 01:42:09;;;;;;;21.63;8.27;;;13.10;99.90;;;;;;4929811;29;20433;-76
2021/09/05 01:44:35;;;;;;;18.98;7.78;;;13.10;99.90;;;;;;4946990;29;20060;-77
2021/09/05 01:47:00;;;;;;;15.80;7.43;;;13.00;99.90;;;;;;4947025;29;20063;-77
2021/09/05 01:49:26;;;;;;;18.20;7.90;;;13.00;99.90;;;;;;4929635;29;20040;-77
2021/09/05 01:51:51;;;;;;;23.35;8.18;;;13.00;99.90;;;;;;4946940;29;20028;-77
2021/09/05 01:54:17;;;;;;;20.15;8.00;;;13.00;99.90;;;;;;4947235;29;20035;-77
2021/09/05 01:56:43;;;;;;;18.67;7.13;;;12.90;99.90;;;;;;4946866;29;20567;-76
2021/09/05 01:59:08;;;;;;;14.40;6.93;;;12.90;99.90;;;;;;4946658;29;20059;-77
2021/09/05 02:01:34;;;;;;;15.98;6.85;;;13.00;99.90;;;;;;4946746;29;20051;-77
2021/09/05 02:04:02;;;;;;;18.45;6.85;;;12.90;99.90;;;;;;4946606;29;20527;-77
2021/09/05 02:06:28;;;;;;;16.80;6.13;;;12.90;99.90;;;;;;4929525;29;20110;-76
2021/09/05 02:08:54;;;;;;;17.83;7.97;;;12.90;99.90;;;;;;4946918;29;20043;-77
2021/09/05 02:11:20;;;;;;;16.15;5.80;;;12.80;99.90;;;;;;4947036;29;20066;-79
2021/09/05 02:13:46;;;;;;;19.95;6.22;;;12.80;99.90;;;;;;4946815;29;20028;-78
2021/09/05 02:16:13;;;;;;;20.98;5.93;;;12.80;99.90;;;;;;4929535;29;20038;-79
2021/09/05 02:18:38;;;;;;;16.30;6.20;;;12.80;99.90;;;;;;4946492;29;20111;-77
2021/09/05 02:21:04;;;;;;;11.40;6.25;;;12.70;99.90;;;;;;4932041;29;20522;-79
2021/09/05 02:23:30;;;;;;;18.25;6.95;;;12.70;99.90;;;;;;4933145;29;20046;-77
2021/09/05 02:25:55;;;;;;;16.13;6.78;;;12.70;99.90;;;;;;4949781;29;20051;-76
2021/09/05 02:28:21;;;;;;;13.77;6.60;;;12.70;99.90;;;;;;4950409;29;20047;-77
2021/09/05 02:30:47;;;;;;;14.25;5.88;;;12.70;99.90;;;;;;4932791;29;20034;-77
2021/09/05 02:33:12;;;;;;;10.60;5.22;;;12.60;99.90;;;;;;4932495;29;20090;-78
2021/09/05 02:35:38;;;;;;;15.65;6.43;;;12.60;99.90;;;;;;4949719;29;20048;-78
2021/09/05 02:38:04;;;;;;;13.63;6.40;;;12.60;99.90;;;;;;4932915;29;20024;-78
2021/09/05 02:40:29;;;;;;;18.48;6.40;;;12.60;99.90;;;;;;4949510;29;20023;-77
2021/09/05 02:42:55;;;;;;;14.77;5.95;;;12.60;99.90;;;;;;4950102;29;20063;-77
2021/09/05 02:45:20;;;;;;;16.52;6.47;;;12.50;99.90;;;;;;4932810;29;20038;-77
2021/09/05 02:47:46;;;;;;;11.68;5.70;;;12.50;99.90;;;;;;4949711;29;20047;-76
2021/09/05 02:50:12;;;;;;;11.10;6.07;;;12.50;99.90;;;;;;4949759;29;20031;-77
2021/09/05 02:52:37;;;;;;;16.55;6.20;;;12.50;99.90;;;;;;4932131;29;20024;-76
2021/09/05 02:55:03;;;;;;;20.95;6.65;;;12.50;99.90;;;;;;4949513;29;20428;-77
2021/09/05 02:57:29;;;;;;;21.48;6.22;;;12.50;99.90;;;;;;4932400;29;20496;-75
2021/09/05 02:59:55;;;;;;;11.75;6.25;;;12.50;99.90;;;;;;4949542;29;20027;-76
2021/09/05 03:02:20;;;;;;;15.45;5.53;;;12.50;99.90;;;;;;4932421;29;20032;-77
2021/09/05 03:04:46;;;;;;;17.17;6.82;;;12.40;99.90;;;;;;4932131;29;20046;-75
2021/09/05 03:07:11;;;;;;;11.73;4.93;;;12.50;99.90;;;;;;4948922;29;20024;-77
2021/09/05 03:09:39;;;;;;;16.20;7.13;;;12.40;99.90;;;;;;4949426;29;20087;-77
2021/09/05 03:12:05;;;;;;;18.60;6.38;;;12.40;99.90;;;;;;4949349;29;20019;-76
2021/09/05 03:14:30;;;;;;;16.67;6.05;;;12.40;99.90;;;;;;4949075;29;20082;-78
2021/09/05 03:16:56;;;;;;;14.15;6.32;;;12.40;99.90;;;;;;4932280;29;20032;-77
2021/09/05 03:19:22;;;;;;;10.02;5.57;;;12.40;99.90;;;;;;4949474;29;20055;-78
2021/09/05 03:21:48;;;;;;;13.88;5.63;;;12.30;99.90;;;;;;4948916;29;20034;-76
2021/09/05 03:24:14;;;;;;;24.20;6.72;;;12.30;99.90;;;;;;4949012;29;20032;-77
2021/09/05 03:26:39;;;;;;;13.70;6.35;;;12.30;99.90;;;;;;4931733;29;20117;-78
2021/09/05 03:29:05;;;;;;;13.02;5.93;;;12.30;99.90;;;;;;4948806;29;20067;-76
2021/09/05 03:31:31;;;;;;;14.43;5.68;;;12.30;99.90;;;;;;4948101;29;20369;-77
2021/09/05 03:33:57;;;;;;;10.13;5.88;;;12.40;99.90;;;;;;4948399;29;20056;-76
2021/09/05 03:36:23;;;;;;;16.70;6.32;;;12.30;99.90;;;;;;4948862;29;20039;-77
2021/09/05 03:38:48;;;;;;;14.82;6.18;;;12.30;99.90;;;;;;4949079;29;20628;-76
2021/09/05 03:41:14;;;;;;;11.85;5.72;;;12.20;99.90;;;;;;4948783;29;20031;-77
2021/09/05 03:43:40;;;;;;;12.95;5.95;;;12.30;99.90;;;;;;4948417;29;20055;-76
2021/09/05 03:46:05;;;;;;;13.50;5.15;;;12.30;99.90;;;;;;4948589;29;20393;-76
2021/09/05 03:48:32;;;;;;;15.85;5.45;;;12.20;99.90;;;;;;4948295;29;20047;-79
2021/09/05 03:50:58;;;;;;;12.85;5.97;;;12.20;99.90;;;;;;4948686;29;20030;-77
2021/09/05 03:53:26;;;;;;;11.27;5.20;;;12.20;99.90;;;;;;4931411;29;20493;-78
2021/09/05 03:55:52;;;;;;;9.85;4.63;;;12.20;99.90;;;;;;4931475;29;20028;-78
2021/09/05 03:58:18;;;;;;;11.15;5.18;;;12.20;99.90;;;;;;4948832;29;20114;-78
2021/09/05 04:00:44;;;;;;;12.52;5.45;;;12.20;99.90;;;;;;4948358;29;20035;-78
2021/09/05 04:03:10;;;;;;;16.27;6.50;;;12.20;99.90;;;;;;4930864;29;20034;-77
2021/09/05 04:05:35;;;;;;;11.77;5.28;;;12.20;99.90;;;;;;4948349;29;20075;-76
2021/09/05 04:10:36;;;;;;;11.50;5.03;;;12.20;99.90;;;;;;4947961;29;20089;-77
2021/09/05 04:13:03;;;;;;;15.85;6.07;;;12.20;99.90;;;;;;4931114;29;20023;-77
2021/09/05 04:15:30;;;;;;;9.82;5.28;;;12.10;99.90;;;;;;4931118;29;20035;-77
2021/09/05 04:17:56;;;;;;;13.55;5.93;;;12.20;99.90;;;;;;4948183;29;20035;-77
2021/09/05 04:20:22;;;;;;;14.50;5.38;;;12.20;99.90;;;;;;4931100;29;20027;-76
2021/09/05 04:22:47;;;;;;;14.93;5.60;;;12.10;99.90;;;;;;4947814;29;20023;-76
2021/09/05 04:25:13;;;;;;;11.35;5.68;;;12.10;99.90;;;;;;4931265;29;20075;-77
2021/09/05 04:27:39;;;;;;;17.60;5.70;;;12.10;99.90;;;;;;4948022;29;20035;-75
2021/09/05 04:30:07;;;;;;;12.07;5.43;;;12.10;99.90;;;;;;4930341;29;20542;-79
2021/09/05 04:32:34;;;;;;;16.35;6.53;;;12.10;99.90;;;;;;4947997;29;20028;-78
2021/09/05 04:35:00;;;;;;;33.17;5.75;;;12.10;99.90;;;;;;4947721;29;20079;-77
2021/09/05 04:37:27;;;;;;;13.18;5.78;;;12.10;99.90;;;;;;4930524;29;20023;-77
2021/09/05 04:39:53;;;;;;;10.63;5.07;;;12.10;99.90;;;;;;4931004;29;20062;-78
2021/09/05 04:42:19;;;;;;;12.50;5.90;;;12.00;99.90;;;;;;4930462;29;20054;-79
2021/09/05 04:44:45;;;;;;;9.45;5.13;;;12.00;99.90;;;;;;4947282;29;20032;-77
2021/09/05 04:47:10;;;;;;;19.60;5.63;;;12.00;99.90;;;;;;4930680;29;20062;-78
2021/09/05 04:49:36;;;;;;;7.93;5.18;;;12.00;99.90;;;;;;4947742;29;20039;-78
2021/09/05 04:52:03;;;;;;;10.55;5.03;;;12.00;99.90;;;;;;4947658;29;20055;-79
2021/09/05 04:54:29;;;;;;;9.57;4.47;;;12.00;99.90;;;;;;4930574;29;20054;-78
2021/09/05 04:56:54;;;;;;;11.57;4.72;;;12.00;99.90;;;;;;4947381;29;20036;-78
2021/09/05 04:59:20;;;;;;;13.38;5.50;;;12.00;99.90;;;;;;4947234;29;20031;-79
2021/09/05 05:01:46;;;;;;;16.30;5.90;;;12.00;99.90;;;;;;4946960;29;20031;-78
2021/09/05 05:04:12;;;;;;;14.93;5.95;;;12.00;99.90;;;;;;4946784;29;20043;-78
2021/09/05 05:06:41;;;;;;;11.77;5.88;;;12.00;99.90;;;;;;4930345;29;20119;-79
2021/09/05 05:09:12;;;;;;;17.23;6.07;;;12.10;99.90;;;;;;4945908;29;20043;-77
2021/09/05 05:11:39;;;;;;;9.93;4.95;;;12.10;99.90;;;;;;4929764;29;20028;-77
2021/09/05 05:14:04;;;;;;;10.23;5.15;;;12.10;99.90;;;;;;4930016;29;20109;-76
2021/09/05 05:16:30;;;;;;;17.77;5.47;;;12.20;99.90;;;;;;4930101;29;20036;-76
2021/09/05 05:18:56;;;;;;;8.50;5.05;;;12.20;99.90;;;;;;4929673;29;20055;-76
2021/09/05 05:21:23;;;;;;;7.38;4.25;;;12.20;99.90;;;;;;4929279;29;20027;-76
2021/09/05 05:23:49;;;;;;;14.88;5.32;;;12.20;99.90;;;;;;4947400;29;20035;-74
2021/09/05 05:26:14;;;;;;;11.38;4.72;;;12.30;99.90;;;;;;4946669;29;20092;-75
2021/09/05 05:28:40;;;;;;;10.63;5.53;;;12.30;99.90;;;;;;4929902;29;20082;-75
2021/09/05 05:31:05;;;;;;;13.50;4.57;;;12.30;99.90;;;;;;4924382;29;20052;-73
2021/09/05 05:33:31;;;;;;;8.85;4.57;;;12.30;99.90;;;;;;4939851;29;20032;-75
2021/09/05 05:35:56;;;;;;;10.70;5.28;;;12.30;99.90;;;;;;4946477;29;20504;-74
2021/09/05 05:38:23;;;;;;;12.50;5.03;;;12.30;99.90;;;;;;4947340;29;20032;-74
2021/09/05 05:40:49;;;;;;;15.30;5.35;;;12.40;99.90;;;;;;4946782;29;20024;-79
2021/09/05 05:43:15;;;;;;;10.15;5.00;;;12.30;99.90;;;;;;4946310;29;20090;-74
2021/09/05 05:45:41;;;;;;;11.68;5.20;;;12.30;99.90;;;;;;4946378;29;20213;-75
2021/09/05 05:48:07;;;;;;;12.63;4.60;;;12.30;99.90;;;;;;4945608;29;20035;-74
2021/09/05 05:50:33;;;;;;;10.43;4.75;;;12.40;99.90;;;;;;4946534;29;20051;-75
2021/09/05 05:52:58;;;;;;;13.70;5.97;;;12.40;99.90;;;;;;4934819;29;20031;-75
2021/09/05 05:55:24;;;;;;;14.27;4.90;;;12.50;99.90;;;;;;4927418;29;20032;-75
2021/09/05 05:57:50;;;;;;;18.30;5.03;;;12.50;99.90;;;;;;4933712;29;20425;-74
2021/09/05 06:00:16;;;;;;;10.25;3.65;;;12.40;99.90;;;;;;4924363;29;20032;-76
2021/09/05 06:02:42;;;;;;;14.80;5.07;;;12.50;99.90;;;;;;4948945;29;20040;-75
2021/09/05 06:05:08;;;;;;;12.88;4.50;;;12.50;99.90;;;;;;4932442;29;20027;-76
2021/09/05 06:07:33;;;;;;;12.60;4.57;;;12.50;99.90;;;;;;4932118;29;20468;-75
2021/09/05 06:09:59;;;;;;;11.77;4.97;;;12.50;99.90;;;;;;4949385;29;20064;-75
2021/09/05 06:12:25;;;;;;;8.25;4.22;;;12.60;99.90;;;;;;4949950;29;20043;-74
2021/09/05 06:14:50;;;;;;;7.35;3.95;;;12.60;99.90;;;;;;4948738;29;20085;-74
2021/09/05 06:17:16;;;;;;;8.77;4.20;;;12.50;99.90;;;;;;4931815;29;20032;-75
2021/09/05 06:19:42;;;;;;;15.02;4.85;;;12.60;99.90;;;;;;4950266;29;20028;-75
2021/09/05 06:22:08;;;;;;;10.80;4.60;;;12.60;99.90;;;;;;4950037;29;20034;-74
2021/09/05 06:24:33;;;;;;;14.98;4.82;;;12.60;99.90;;;;;;4949586;29;20031;-75
2021/09/05 06:26:59;;;;;;;8.88;4.18;;;12.60;99.90;;;;;;4949019;29;20495;-76
2021/09/05 06:29:24;;;;;;;12.27;4.88;;;12.60;99.90;;;;;;4932158;29;20046;-76
2021/09/05 06:31:50;;;;;;;14.27;4.30;;;12.60;99.90;;;;;;4932758;29;20035;-75
2021/09/05 06:34:15;;;;;;;7.07;3.92;;;12.60;99.90;;;;;;4949797;29;20396;-75
2021/09/05 06:36:41;;;;;;;6.97;3.78;;;12.60;99.90;;;;;;4932172;29;20453;-74
2021/09/05 06:39:07;;;;;;;11.10;4.55;;;12.60;99.90;;;;;;4950247;29;20035;-75
2021/09/05 06:41:32;;;;;;;9.10;4.45;;;12.70;99.90;;;;;;4949926;29;20028;-75
2021/09/05 06:43:58;;;;;;;10.38;4.43;;;12.70;99.90;;;;;;4948697;29;20051;-74
2021/09/05 06:46:24;;;;;;;13.40;4.50;;;12.80;99.90;;;;;;4949862;29;20027;-75
2021/09/05 06:48:50;;;;;;;10.27;3.92;;;12.80;99.90;;;;;;4949596;29;20040;-75
2021/09/05 06:51:16;;;;;;;10.18;4.43;;;12.80;99.90;;;;;;4948540;29;20397;-76
2021/09/05 06:53:42;;;;;;;10.07;4.43;;;12.80;99.90;;;;;;4949753;29;20111;-74
2021/09/05 06:56:09;;;;;;;12.35;4.40;;;12.80;99.90;;;;;;4949399;29;20474;-76
2021/09/05 06:58:34;;;;;;;7.32;3.50;;;12.80;99.90;;;;;;4949567;29;20032;-75
2021/09/05 07:01:00;;;;;;;8.23;3.67;;;12.90;99.90;;;;;;4949712;29;20091;-75
2021/09/05 07:03:26;;;;;;;10.65;4.15;;;12.90;99.90;;;;;;4949287;29;20472;-77
2021/09/05 07:05:52;;;;;;;8.43;4.07;;;12.90;99.90;;;;;;4949604;29;20028;-75
2021/09/05 07:08:18;;;;;;;11.68;4.13;;;12.90;99.90;;;;;;4949265;29;20485;-74
2021/09/05 07:10:43;;;;;;;10.77;4.32;;;13.00;99.90;;;;;;4948954;29;20035;-75
2021/09/05 07:13:09;;;;;;;8.23;3.75;;;13.00;99.90;;;;;;4949455;29;20066;-75
2021/09/05 07:15:35;;;;;;;7.35;3.95;;;13.00;99.90;;;;;;4931552;29;20443;-75
2021/09/05 07:18:02;;;;;;;9.77;4.43;;;13.00;99.90;;;;;;4931807;29;20039;-75
2021/09/05 07:20:28;;;;;;;6.75;3.45;;;13.10;99.90;;;;;;4931421;29;20047;-74
2021/09/05 07:22:55;;;;;;;8.80;4.40;;;13.10;99.90;;;;;;4949172;29;20035;-75
2021/09/05 07:25:21;;;;;;;13.32;4.35;;;13.20;99.90;;;;;;4932017;29;20505;-76
2021/09/05 07:27:48;;;;;;;8.88;3.95;;;13.20;99.90;;;;;;4948606;29;20047;-75
2021/09/05 07:30:14;;;;;;;7.47;3.95;;;13.20;99.90;;;;;;4930817;29;20067;-75
2021/09/05 07:32:41;;;;;;;9.13;4.07;;;13.30;99.90;;;;;;4949002;29;20075;-75
2021/09/05 07:35:07;;;;;;;9.45;4.30;;;13.40;99.90;;;;;;4948537;29;20051;-75
2021/09/05 07:37:33;;;;;;;11.60;4.57;;;13.30;99.90;;;;;;4946777;29;20028;-76
2021/09/05 07:39:59;;;;;;;9.70;4.68;;;13.40;99.90;;;;;;4929426;29;20034;-75
2021/09/05 07:42:27;;;;;;;9.82;4.13;;;13.50;99.90;;;;;;4930976;29;20043;-76
2021/09/05 07:44:52;;;;;;;9.30;4.22;;;13.50;99.90;;;;;;4948227;29;20023;-76
2021/09/05 07:47:19;;;;;;;8.23;3.22;;;13.50;99.90;;;;;;4948161;29;20028;-75
2021/09/05 07:49:44;;;;;;;7.35;4.05;;;13.60;99.90;;;;;;4947993;29;20123;-76
2021/09/05 07:52:10;;;;;;;6.82;3.70;;;13.70;99.90;;;;;;4930446;29;20032;-75
2021/09/05 07:54:35;;;;;;;9.75;4.70;;;13.70;99.90;;;;;;4948326;29;20055;-75
2021/09/05 07:57:01;;;;;;;8.07;4.05;;;13.80;99.90;;;;;;4947153;29;20064;-76
2021/09/05 07:59:27;;;;;;;5.53;3.47;;;13.90;99.90;;;;;;4946921;29;20024;-76
2021/09/05 08:01:53;;;;;;;10.68;4.60;;;14.00;99.90;;;;;;4948168;29;20028;-75
2021/09/05 08:04:18;;;;;;;8.07;4.10;;;14.00;99.90;;;;;;4948217;29;20043;-75
2021/09/05 08:06:44;;;;;;;10.65;4.22;;;14.10;99.90;;;;;;4930516;29;20043;-75
2021/09/05 08:09:09;;;;;;;8.48;3.65;;;14.20;99.90;;;;;;4947695;29;20091;-75
2021/09/05 08:11:35;;;;;;;22.23;4.78;;;14.30;99.90;;;;;;4947354;29;20034;-74
2021/09/05 08:14:01;;;;;;;8.73;4.28;;;14.40;99.90;;;;;;4930323;29;20252;-74
2021/09/05 08:16:26;;;;;;;7.75;3.40;;;14.50;99.90;;;;;;4948024;29;20039;-77
2021/09/05 08:18:52;;;;;;;11.45;4.45;;;14.50;99.90;;;;;;4947480;29;20036;-75
2021/09/05 08:21:17;;;;;;;8.00;3.85;;;14.70;99.90;;;;;;4929836;29;20035;-76
2021/09/05 08:23:44;;;;;;;10.32;3.85;;;14.70;99.90;;;;;;4929594;29;20040;-75
2021/09/05 08:26:12;;;;;;;5.45;3.08;;;14.80;99.90;;;;;;4947229;29;20078;-75
2021/09/05 08:28:38;;;;;;;7.45;3.33;;;14.90;99.90;;;;;;4930484;29;20047;-75
2021/09/05 08:31:04;;;;;;;5.50;2.92;;;15.00;99.90;;;;;;4948056;29;20403;-75
2021/09/05 08:33:29;;;;;;;7.25;3.03;;;15.10;99.90;;;;;;4947664;29;20028;-75
2021/09/05 08:35:55;;;;;;;7.30;3.67;;;15.30;99.90;;;;;;4924156;29;20048;-75
2021/09/05 08:38:21;;;;;;;5.45;2.90;;;15.40;99.90;;;;;;4920497;29;20032;-74
2021/09/05 08:40:48;;;;;;;11.85;3.45;;;15.60;99.90;;;;;;4928611;29;20055;-74
2021/09/05 08:43:15;;;;;;;6.18;3.40;;;15.70;99.90;;;;;;4909337;29;20039;-75
2021/09/05 08:45:45;;;;;;;5.50;2.90;;;15.80;99.90;;;;;;4908543;29;20041;-76
2021/09/05 08:48:13;;;;;;;8.20;3.17;;;15.80;99.90;;;;;;4909414;29;20084;-74
2021/09/05 08:50:38;;;;;;;5.35;2.88;;;16.00;99.90;;;;;;4910650;29;20037;-74
2021/09/05 08:53:05;;;;;;;9.70;3.47;;;15.90;99.90;;;;;;4922690;29;20060;-74
2021/09/05 08:55:31;;;;;;;7.82;2.85;;;16.10;99.90;;;;;;4927861;29;20034;-75
2021/09/05 08:57:56;;;;;;;7.50;3.22;;;16.20;99.90;;;;;;4927059;29;20035;-74
2021/09/05 09:00:22;;;;;;;9.23;2.83;;;16.30;99.90;;;;;;4928434;29;20095;-73
2021/09/05 09:02:52;;;;;;;7.22;3.38;;;16.50;99.90;;;;;;4927814;29;20115;-75
2021/09/05 09:05:40;;;;;;;7.32;3.25;;;16.70;99.90;;;;;;4926827;29;20043;-75
2021/09/05 09:08:08;;;;;;;7.75;2.90;;;17.00;99.90;;;;;;4927901;29;20039;-72
2021/09/05 09:10:57;;;;;;;8.80;3.45;;;17.10;99.90;;;;;;4927632;29;20032;-74
2021/09/05 09:13:42;;;;;;;5.35;2.17;;;17.20;99.90;;;;;;4928383;29;20043;-76
2021/09/05 09:16:10;;;;;;;8.18;2.70;;;17.40;99.90;;;;;;4927708;29;20100;-75
2021/09/05 09:18:38;;;;;;;7.95;3.05;;;17.50;99.90;;;;;;4927576;29;20029;-75
2021/09/05 09:21:06;;;;;;;8.55;3.22;;;17.70;99.90;;;;;;4928145;29;20385;-74
2021/09/05 09:23:36;;;;;;;5.82;2.58;;;17.70;99.90;;;;;;4927997;29;20032;-75
2021/09/05 09:26:06;;;;;;;8.55;3.20;;;17.80;99.90;;;;;;4927921;29;20028;-76
2021/09/05 09:28:40;;;;;;;6.68;2.65;;;17.90;99.90;;;;;;4924368;29;20055;-75
2021/09/05 09:31:25;;;;;;;5.95;2.58;;;17.90;99.90;;;;;;4917679;29;20058;-75
2021/09/05 09:33:59;;;;;;;6.32;2.97;;;18.00;99.90;;;;;;4924745;29;20032;-76
2021/09/05 09:36:27;;;;;;;5.00;2.40;;;18.10;99.90;;;;;;4943237;29;20032;-76
2021/09/05 09:39:02;;;;;;;5.82;2.63;;;18.20;99.90;;;;;;4933650;29;20489;-74
2021/09/05 09:41:29;;;;;;;6.85;2.67;;;18.30;99.90;;;;;;4948783;29;20032;-75
2021/09/05 09:44:00;;;;;;;5.85;2.63;;;18.40;99.90;;;;;;4946417;29;20079;-75
2021/09/05 09:46:28;;;;;;;6.60;2.88;;;18.50;99.90;;;;;;4950781;29;20039;-74
2021/09/05 09:48:57;;;;;;;3.03;1.83;;;18.60;99.90;;;;;;4933656;29;20044;-73
2021/09/05 09:51:24;;;;;;;6.30;3.03;;;18.70;99.90;;;;;;4950422;29;20031;-74
2021/09/05 09:53:51;;;;;;;9.27;3.55;;;18.80;99.90;;;;;;4950498;29;20032;-74
2021/09/05 09:56:17;;;;;;;4.53;2.13;;;18.80;99.90;;;;;;4951009;29;20400;-72
2021/09/05 09:58:48;;;;;;;5.22;2.15;;;18.70;99.90;;;;;;4950026;29;20419;-74
2021/09/05 10:01:16;;;;;;;7.15;2.50;;;18.90;99.90;;;;;;4950384;29;20086;-74
2021/09/05 10:03:45;;;;;;;9.40;3.22;;;19.00;99.90;;;;;;4950583;29;20028;-75
2021/09/05 10:06:12;;;;;;;7.45;2.88;;;19.00;99.90;;;;;;4950217;29;20040;-74
2021/09/05 10:08:40;;;;;;;7.35;2.35;;;19.10;99.90;;;;;;4950217;29;20045;-75
2021/09/05 10:11:08;;;;;;;6.20;2.67;;;19.10;99.90;;;;;;4950314;29;20075;-75
2021/09/05 10:13:37;;;;;;;6.32;2.83;;;19.10;99.90;;;;;;4949791;29;20024;-74
2021/09/05 10:16:03;;;;;;;5.05;1.90;;;19.10;99.90;;;;;;4950312;29;20036;-75
2021/09/05 10:18:31;;;;;;;6.55;2.10;;;19.30;99.90;;;;;;4949343;29;20044;-75
2021/09/05 10:20:59;;;;;;;12.55;2.45;;;19.40;99.90;;;;;;4949605;29;20023;-73
2021/09/05 10:23:34;;;;;;;4.22;2.17;;;19.60;99.90;;;;;;4932808;29;20031;-74
2021/09/05 10:26:09;;;;;;;7.63;2.10;;;19.70;99.90;;;;;;4949752;29;20051;-73
2021/09/05 10:28:36;;;;;;;6.47;2.30;;;19.70;99.90;;;;;;4949783;29;20082;-74
2021/09/05 10:31:03;;;;;;;3.97;2.15;;;19.70;99.90;;;;;;4932385;29;20062;-73
2021/09/05 10:33:34;;;;;;;9.43;2.78;;;19.80;99.90;;;;;;4949448;29;20024;-73
2021/09/05 14:13:35;;;;;;;2.10;1.00;;;29.90;99.90;;;;;;4402488;27;20435;-75
2021/09/05 14:16:00;;;;;;;5.78;1.50;;;30.30;99.90;;;;;;4928084;29;20531;-77
2021/09/05 14:18:32;;;;;;;2.05;0.93;;;30.40;99.90;;;;;;4929958;29;20071;-74
2021/09/05 14:20:58;;;;;;;1.63;0.90;;;30.70;98.80;;;;;;4950070;29;20047;-74
2021/09/05 14:23:26;;;;;;;1.67;1.20;;;30.80;99.90;;;;;;4923206;29;20028;-75
2021/09/05 14:25:56;;;;;;;2.25;1.00;;;30.80;99.90;;;;;;4938355;29;20031;-76
2021/09/05 14:28:26;;;;;;;2.35;1.05;;;30.90;99.90;;;;;;4937322;29;20035;-75
2021/09/05 14:31:01;;;;;;;1.25;0.90;;;30.90;99.90;;;;;;4931144;29;20103;-74
2021/09/05 14:55:04;;;;;;;3.00;0.90;;;32.00;99.90;;;;;;4949066;29;20113;-73
2021/09/05 14:57:30;;;;;;;1.83;0.95;;;32.20;99.90;;;;;;4949107;29;20028;-74
2021/09/05 14:59:59;;;;;;;2.10;1.10;;;32.50;99.20;;;;;;4948997;29;20039;-74
2021/09/05 15:02:32;;;;;;;1.92;0.95;;;32.70;98.90;;;;;;4930851;29;20170;-75
2021/09/05 15:12:53;;;;;;;2.65;0.95;;;32.30;97.70;;;;;;4922109;29;20110;-76
2021/09/05 15:15:21;;;;;;;5.07;1.20;;;32.10;96.40;;;;;;4929403;29;20041;-76
2021/09/05 15:17:47;;;;;;;2.25;1.23;;;32.00;96.60;;;;;;4904855;29;20092;-74
2021/09/05 15:20:14;;;;;;;1.88;1.23;;;32.00;97.00;;;;;;4919478;29;20438;-76
2021/09/05 15:22:41;;;;;;;3.22;1.25;;;32.10;96.50;;;;;;4906937;29;20081;-74
2021/09/05 15:25:09;;;;;;;2.17;1.15;;;32.10;96.70;;;;;;4900102;29;20031;-74
2021/09/05 15:28:12;;;;;;;3.40;1.13;;;32.30;96.40;;;;;;4899577;29;20024;-74
2021/09/05 15:30:52;;;;;;;1.05;0.77;;;32.50;96.00;;;;;;4914869;29;20043;-75
2021/09/05 15:33:42;;;;;;;1.70;0.90;;;32.30;95.90;;;;;;4920159;29;20047;-74
2021/09/05 15:36:28;;;;;;;9.38;1.15;;;32.20;95.80;;;;;;4909957;29;20028;-75
2021/09/05 15:39:18;;;;;;;3.92;1.35;;;32.30;96.00;;;;;;4925872;29;20051;-75
2021/09/05 15:55:26;;;;;;;3.20;1.00;;;32.50;94.70;;;;;;4914204;29;20073;-74
2021/09/05 15:57:54;;;;;;;2.42;1.02;;;32.60;94.80;;;;;;4914506;29;20052;-74
2021/09/05 16:00:29;;;;;;;5.30;1.15;;;32.60;94.50;;;;;;4916937;29;20024;-74
2021/09/05 16:03:06;;;;;;;3.72;1.63;;;32.50;94.30;;;;;;4910411;29;20028;-74
2021/09/05 16:05:54;;;;;;;1.98;0.95;;;32.50;94.00;;;;;;4923245;29;20429;-74
2021/09/05 16:16:40;;;;;;;2.10;1.13;;;33.10;93.40;;;;;;4910814;29;20039;-72
2021/09/05 16:19:06;;;;;;;2.33;1.00;;;33.00;92.90;;;;;;4919201;29;20554;-72
2021/09/05 16:21:31;;;;;;;2.20;0.95;;;32.90;92.90;;;;;;4899588;29;20036;-72
2021/09/05 16:23:57;;;;;;;1.40;0.90;;;32.90;92.50;;;;;;4916807;29;20036;-73
2021/09/05 16:26:24;;;;;;;1.98;1.02;;;32.90;92.50;;;;;;4915892;29;20028;-74
2021/09/05 16:28:57;;;;;;;4.55;0.95;;;32.80;92.30;;;;;;4901669;29;20465;-72
2021/09/05 16:31:23;;;;;;;1.48;0.95;;;32.70;91.60;;;;;;4919881;29;20043;-73
2021/09/05 16:33:54;;;;;;;2.33;1.15;;;32.70;92.00;;;;;;4916944;29;20131;-73
2021/09/05 16:41:59;;;;;;;2.30;1.00;;;32.00;91.90;;;;;;4883764;29;20048;-74
2021/09/05 16:44:25;;;;;;;5.15;1.50;;;31.80;91.90;;;;;;4917685;29;20037;-74
2021/09/05 16:46:51;;;;;;;9.18;1.85;;;31.70;92.00;;;;;;4918896;29;20056;-73
2021/09/05 16:49:16;;;;;;;2.33;1.17;;;31.60;91.90;;;;;;4918846;29;20054;-73
2021/09/05 16:51:42;;;;;;;2.78;1.40;;;31.40;91.80;;;;;;4917510;29;20028;-73
2021/09/05 16:54:07;;;;;;;3.30;0.95;;;31.30;92.10;;;;;;4916279;29;20065;-72
2021/09/05 16:56:33;;;;;;;8.35;1.45;;;31.10;91.70;;;;;;4920410;29;20020;-76
2021/09/05 16:58:58;;;;;;;2.17;1.02;;;30.90;92.10;;;;;;4913598;29;20099;-74
2021/09/05 17:01:24;;;;;;;3.78;1.38;;;30.70;92.20;;;;;;4911821;29;20029;-74
2021/09/05 17:03:50;;;;;;;6.25;1.05;;;30.60;92.10;;;;;;4917571;29;20028;-74
2021/09/05 17:06:16;;;;;;;1.83;1.10;;;30.30;92.30;;;;;;4912904;29;20032;-74
2021/09/05 17:08:42;;;;;;;2.08;1.23;;;30.10;92.50;;;;;;4918427;29;20034;-73
2021/09/05 17:11:08;;;;;;;2.63;1.40;;;29.90;92.70;;;;;;4927924;29;20087;-73
2021/09/05 17:13:33;;;;;;;1.30;0.93;;;29.40;92.80;;;;;;4923503;29;20044;-72
2021/09/05 17:16:01;;;;;;;2.55;1.00;;;28.70;93.00;;;;;;4909049;29;20389;-73
2021/09/05 17:18:28;;;;;;;9.73;1.50;;;28.10;93.60;;;;;;4913786;29;20148;-73